Kezdőlap
METAR-TAF:

METAR-TAF

Repülőterek :

Mendoza, Argentína

földrajzi szélesség: 32-50S, földrajzi hosszúság: 068-47W, magasság: 705 m

Jelenlegi meteorológiai megfigyelések

A jelentés 38 perccel ezelõtt készült, 19:00 UTC
Délkeleti szél 7 kt
Hőmérséklet 8°C
Páratartalom 71%
Légköri nyomás 1015 hPa
Látótávolság 10 km, vagy több
Borult 3000 lábon

METAR: SAME 181900Z 14007KT 9999 OVC030 08/03 Q1015

Idő: 16:38 (19:38 UTC)

Előrejelzés

A jelentés 2 órával és 38 perccel ezelõtt készült, 17:00 UTC
Az előrejelzés 18-én 18 óra UTC és 19-én 18 óra UTC között érvényes
Déli szél 10 kt
Látótávolság 10 km, vagy több
Borult 3000 lábon
18-én 22 óra UTC és 19-én 00 óra UTC között fokozatosan kialakuló
Dél-délkeleti szél 10 kt
Látótávolság: 6000 m
Borult 2000 lábon
szitálás

TAF: SAME 181700Z 1818/1918 18010KT 9999 OVC030 TX09/1820Z TN02/1910Z BECMG 1822/1900 16010KT 6000 DZ OVC020

Meteorológiai megfigyelések és előrejelzések több, mint 4000 repülőtéren (METAR és TAF jelentéseket).

A térképen piros és sárga pontok jelzik az elérhető meteorológiai állomásokat.

Mozgassa az egeret a pont fölött, hogy megjelenjen az állomás neve.

Azután kattintson az időjárási megfigyelések és előrejelzések megtekintéséhez.

A térkép megváltoztatása: kattintson a fekete keresztel jelölt zöld gombra ráközelítéshez, a vonallal jelölt zöld gombra távolításhoz, vagy a zöld nyilakra a szomszédos térképek eléréséhez.


METAR-TAF: